Time;durP1;ratioP1;P1;durP2;ratioP2;P2;SDS_P1;SDS_P2;PMS_P1;PMS_P2;Temp;Humidity;BMP_temperature;BMP_pressure;BME280_temperature;BME280_humidity;BME280_pressure;Samples;Min_cycle;Max_cycle;Signal;HPM_P1;HPM_P2
2024/03/24 00:03:25;;;;;;;3.78;3.08;;;;;;;;;;10280797;28;20516;-59
2024/03/24 00:08:22;;;;;;;3.00;2.70;;;;;;;;;;10265824;28;20069;-60
2024/03/24 00:13:19;;;;;;;2.75;2.42;;;;;;;;;;10265813;28;20052;-59
2024/03/24 00:18:18;;;;;;;3.53;2.83;;;;;;;;;;10284954;28;20094;-59
2024/03/24 00:23:16;;;;;;;4.15;3.38;;;;;;;;;;10302134;28;20072;-59
2024/03/24 00:28:13;;;;;;;2.83;2.55;;;;;;;;;;10277129;28;20070;-58
2024/03/24 00:33:11;;;;;;;5.30;2.95;;;;;;;;;;10279291;28;20075;-59
2024/03/24 00:38:10;;;;;;;4.85;3.20;;;;;;;;;;10277986;28;20068;-59
2024/03/24 00:43:07;;;;;;;3.67;2.92;;;;;;;;;;10284097;28;20079;-59
2024/03/24 00:48:05;;;;;;;3.38;3.08;;;;;;;;;;10279009;28;20108;-59
2024/03/24 00:53:04;;;;;;;4.53;2.50;;;;;;;;;;10285297;28;20083;-59
2024/03/24 00:58:02;;;;;;;3.17;2.70;;;;;;;;;;10273011;28;20074;-59
2024/03/24 01:03:00;;;;;;;3.00;2.70;;;;;;;;;;10287793;28;20087;-59
2024/03/24 01:07:57;;;;;;;3.72;2.78;;;;;;;;;;10275893;28;20443;-59
2024/03/24 01:12:55;;;;;;;4.45;2.80;;;;;;;;;;10290304;28;20137;-59
2024/03/24 01:17:54;;;;;;;3.70;3.00;;;;;;;;;;10304800;28;20091;-59
2024/03/24 01:22:52;;;;;;;4.50;3.00;;;;;;;;;;10284356;28;20064;-59
2024/03/24 01:27:49;;;;;;;2.78;2.40;;;;;;;;;;10255931;28;20438;-59
2024/03/24 01:32:46;;;;;;;3.45;2.70;;;;;;;;;;10253953;28;20076;-59
2024/03/24 01:37:45;;;;;;;3.05;2.72;;;;;;;;;;10254444;28;20135;-59
2024/03/24 01:42:43;;;;;;;3.67;3.00;;;;;;;;;;10268366;28;20061;-59
2024/03/24 01:47:40;;;;;;;2.90;2.60;;;;;;;;;;10267710;28;20494;-61
2024/03/24 01:52:37;;;;;;;3.28;2.88;;;;;;;;;;10254806;28;20088;-58
2024/03/24 01:57:36;;;;;;;5.53;2.50;;;;;;;;;;10266382;28;20080;-60
2024/03/24 02:02:34;;;;;;;5.65;2.75;;;;;;;;;;10281936;28;20069;-59
2024/03/24 02:07:31;;;;;;;3.25;2.85;;;;;;;;;;10267920;28;20044;-59
2024/03/24 02:12:29;;;;;;;2.90;2.58;;;;;;;;;;10254836;28;20545;-59
2024/03/24 02:17:27;;;;;;;2.92;2.63;;;;;;;;;;10267678;28;20512;-58
2024/03/24 02:22:25;;;;;;;3.10;2.38;;;;;;;;;;10254753;28;20067;-58
2024/03/24 02:27:24;;;;;;;4.45;2.63;;;;;;;;;;10272750;28;20575;-58
2024/03/24 02:32:21;;;;;;;3.53;2.92;;;;;;;;;;10287692;28;20135;-59
2024/03/24 02:37:19;;;;;;;2.92;2.65;;;;;;;;;;10274221;28;20083;-59
2024/03/24 02:42:18;;;;;;;2.97;2.60;;;;;;;;;;10305912;28;20067;-58
2024/03/24 02:47:17;;;;;;;3.10;2.35;;;;;;;;;;10264741;28;20544;-59
2024/03/24 02:52:14;;;;;;;3.13;2.92;;;;;;;;;;10262061;28;20699;-59
2024/03/24 02:57:12;;;;;;;4.43;2.47;;;;;;;;;;10262234;28;20095;-59
2024/03/24 03:02:10;;;;;;;2.78;2.50;;;;;;;;;;10277999;28;20068;-59
2024/03/24 03:07:10;;;;;;;3.85;3.00;;;;;;;;;;10261604;28;20083;-59
2024/03/24 03:12:08;;;;;;;3.35;3.05;;;;;;;;;;10291908;28;20121;-59
2024/03/24 03:17:06;;;;;;;3.55;3.10;;;;;;;;;;10232710;28;20088;-59
2024/03/24 03:22:04;;;;;;;3.85;3.05;;;;;;;;;;10217860;28;20073;-60
2024/03/24 03:27:03;;;;;;;3.05;2.75;;;;;;;;;;10219965;28;20069;-60
2024/03/24 03:32:00;;;;;;;5.22;2.95;;;;;;;;;;10220182;28;20463;-60
2024/03/24 03:36:58;;;;;;;4.40;3.28;;;;;;;;;;10246240;28;20073;-61
2024/03/24 03:41:55;;;;;;;4.40;2.60;;;;;;;;;;10218644;28;20072;-59
2024/03/24 03:46:54;;;;;;;2.90;2.30;;;;;;;;;;10219881;28;20443;-59
2024/03/24 03:51:56;;;;;;;2.75;2.55;;;;;;;;;;10231826;28;20076;-59
2024/03/24 03:56:53;;;;;;;3.90;2.60;;;;;;;;;;10218586;28;20084;-60
2024/03/24 04:01:51;;;;;;;4.05;2.60;;;;;;;;;;10229645;28;20085;-59
2024/03/24 04:06:50;;;;;;;3.05;2.50;;;;;;;;;;10238136;28;20573;-60
2024/03/24 04:11:47;;;;;;;2.92;2.67;;;;;;;;;;10236871;28;20092;-61
2024/03/24 04:16:45;;;;;;;3.35;3.05;;;;;;;;;;10275952;28;20084;-59
2024/03/24 04:21:43;;;;;;;5.32;3.22;;;;;;;;;;10271450;28;20083;-60
2024/03/24 04:26:42;;;;;;;5.10;2.70;;;;;;;;;;10282737;28;20069;-59
2024/03/24 04:31:39;;;;;;;3.25;2.72;;;;;;;;;;10279652;28;20494;-59
2024/03/24 04:36:37;;;;;;;4.93;2.80;;;;;;;;;;10257560;28;20484;-59
2024/03/24 04:41:34;;;;;;;3.00;2.70;;;;;;;;;;10297448;28;20110;-59
2024/03/24 04:46:33;;;;;;;3.08;2.60;;;;;;;;;;10283484;28;20076;-60
2024/03/24 04:51:30;;;;;;;3.60;3.05;;;;;;;;;;10273397;28;20072;-58
2024/03/24 04:56:28;;;;;;;5.10;3.83;;;;;;;;;;10276371;28;20060;-59
2024/03/24 05:01:25;;;;;;;4.75;2.78;;;;;;;;;;10286070;28;20068;-58
2024/03/24 05:06:24;;;;;;;3.25;2.92;;;;;;;;;;10296757;28;20067;-59
2024/03/24 05:11:22;;;;;;;3.15;2.70;;;;;;;;;;10273226;28;20088;-58
2024/03/24 05:16:19;;;;;;;3.38;3.08;;;;;;;;;;10261627;28;20071;-60
2024/03/24 05:21:17;;;;;;;3.67;3.13;;;;;;;;;;10270355;28;20544;-60
2024/03/24 05:26:15;;;;;;;4.20;3.17;;;;;;;;;;10273344;28;20450;-59
2024/03/24 05:31:13;;;;;;;4.53;3.90;;;;;;;;;;10273034;28;20089;-60
2024/03/24 05:36:10;;;;;;;4.32;3.45;;;;;;;;;;10279959;28;20067;-59
2024/03/24 05:41:09;;;;;;;4.75;3.33;;;;;;;;;;10299578;28;20102;-59
2024/03/24 05:46:08;;;;;;;6.80;6.20;;;;;;;;;;10279984;28;20068;-60
2024/03/24 05:51:06;;;;;;;5.15;3.20;;;;;;;;;;10260513;28;20490;-59
2024/03/24 05:56:03;;;;;;;3.60;3.30;;;;;;;;;;10268368;28;20068;-59
2024/03/24 06:01:03;;;;;;;6.55;3.22;;;;;;;;;;10280606;28;20068;-58
2024/03/24 06:06:02;;;;;;;3.45;3.15;;;;;;;;;;10287189;28;20108;-60
2024/03/24 06:10:59;;;;;;;4.22;3.60;;;;;;;;;;10271490;28;20110;-60
2024/03/24 06:15:56;;;;;;;6.35;3.60;;;;;;;;;;10267971;28;20065;-57
2024/03/24 06:20:54;;;;;;;4.63;3.78;;;;;;;;;;10269491;28;20085;-59
2024/03/24 06:25:53;;;;;;;5.68;3.70;;;;;;;;;;10275826;28;20068;-59
2024/03/24 06:30:52;;;;;;;3.50;3.10;;;;;;;;;;10279686;28;20076;-59
2024/03/24 06:35:49;;;;;;;6.90;4.65;;;;;;;;;;10277845;28;20064;-58
2024/03/24 06:40:47;;;;;;;4.68;4.18;;;;;;;;;;10285928;28;20081;-58
2024/03/24 06:45:48;;;;;;;11.50;4.65;;;;;;;;;;10265073;28;20064;-58
2024/03/24 06:50:46;;;;;;;6.53;5.80;;;;;;;;;;10299067;28;20076;-59
2024/03/24 06:55:46;;;;;;;3.95;3.55;;;;;;;;;;10297755;28;20064;-59
2024/03/24 07:00:44;;;;;;;7.63;3.83;;;;;;;;;;10287155;28;20107;-59
2024/03/24 07:05:42;;;;;;;6.85;4.10;;;;;;;;;;10284596;28;20065;-60
2024/03/24 07:10:40;;;;;;;12.85;4.78;;;;;;;;;;10293041;28;20107;-59
2024/03/24 07:15:38;;;;;;;5.53;5.00;;;;;;;;;;10252608;28;20053;-60
2024/03/24 07:20:35;;;;;;;8.20;4.93;;;;;;;;;;10256757;28;20459;-58
2024/03/24 07:25:34;;;;;;;5.68;5.00;;;;;;;;;;10251700;28;20490;-59
2024/03/24 07:30:31;;;;;;;6.45;4.53;;;;;;;;;;10268410;28;20060;-59
2024/03/24 07:35:29;;;;;;;8.63;5.70;;;;;;;;;;10245575;28;20060;-59
2024/03/24 07:40:27;;;;;;;5.63;4.97;;;;;;;;;;10257577;28;20081;-58
2024/03/24 07:45:26;;;;;;;8.57;6.28;;;;;;;;;;10230908;28;20809;-58
2024/03/24 07:50:23;;;;;;;8.25;5.03;;;;;;;;;;10240283;28;20064;-59
2024/03/24 07:55:21;;;;;;;7.00;4.78;;;;;;;;;;10262476;28;20084;-60
2024/03/24 08:00:19;;;;;;;13.98;7.85;;;;;;;;;;10233599;28;20089;-59
2024/03/24 08:05:17;;;;;;;10.48;6.47;;;;;;;;;;10266348;28;20075;-59
2024/03/24 08:10:15;;;;;;;8.43;6.85;;;;;;;;;;10246130;28;20119;-59
2024/03/24 08:15:12;;;;;;;8.13;6.18;;;;;;;;;;10286322;28;20087;-59
2024/03/24 08:20:10;;;;;;;9.25;5.70;;;;;;;;;;10274807;28;20076;-59
2024/03/24 08:25:09;;;;;;;8.27;6.50;;;;;;;;;;10293926;28;20064;-60
2024/03/24 08:30:08;;;;;;;8.55;6.70;;;;;;;;;;10295887;28;20072;-59
2024/03/24 08:35:05;;;;;;;8.40;6.78;;;;;;;;;;10273698;28;20514;-59
2024/03/24 08:40:03;;;;;;;6.88;5.72;;;;;;;;;;10296330;28;20075;-60
2024/03/24 08:45:02;;;;;;;9.35;6.03;;;;;;;;;;10314453;28;20072;-60
2024/03/24 08:49:59;;;;;;;8.98;5.82;;;;;;;;;;10298873;28;20077;-59
2024/03/24 08:54:57;;;;;;;19.67;14.90;;;;;;;;;;10286566;28;20454;-60
2024/03/24 08:59:56;;;;;;;7.50;5.50;;;;;;;;;;10259347;28;20087;-59
2024/03/24 09:04:55;;;;;;;16.25;8.98;;;;;;;;;;10302012;28;20072;-60
2024/03/24 09:09:52;;;;;;;9.93;7.03;;;;;;;;;;10289690;28;20184;-60
2024/03/24 09:14:50;;;;;;;9.07;5.78;;;;;;;;;;10290099;28;20077;-60
2024/03/24 09:19:47;;;;;;;6.00;5.10;;;;;;;;;;10277258;28;20083;-59
2024/03/24 09:24:46;;;;;;;6.63;5.13;;;;;;;;;;10273039;28;20068;-61
2024/03/24 09:29:47;;;;;;;13.32;6.95;;;;;;;;;;10305892;28;20066;-59
2024/03/24 09:34:44;;;;;;;10.60;7.32;;;;;;;;;;10268168;28;20068;-60
2024/03/24 09:39:41;;;;;;;15.10;8.70;;;;;;;;;;10307520;28;20091;-60
2024/03/24 09:44:41;;;;;;;7.05;5.38;;;;;;;;;;10291840;28;20474;-60
2024/03/24 09:49:40;;;;;;;9.60;7.45;;;;;;;;;;10259246;28;20076;-59
2024/03/24 09:54:37;;;;;;;6.75;5.55;;;;;;;;;;10303508;28;20073;-60
2024/03/24 09:59:37;;;;;;;14.85;8.65;;;;;;;;;;10285486;28;20158;-60
2024/03/24 10:04:36;;;;;;;10.00;4.65;;;;;;;;;;10300071;28;20059;-60
2024/03/24 10:09:33;;;;;;;8.57;5.82;;;;;;;;;;10306422;28;20059;-59
2024/03/24 10:14:32;;;;;;;10.35;6.25;;;;;;;;;;10299145;28;20446;-59
2024/03/24 10:19:29;;;;;;;6.53;5.72;;;;;;;;;;10273814;28;20073;-60
2024/03/24 10:24:29;;;;;;;7.82;6.18;;;;;;;;;;10283695;28;20076;-59
2024/03/24 10:29:27;;;;;;;12.20;6.53;;;;;;;;;;10275512;28;20080;-59
2024/03/24 10:34:24;;;;;;;8.63;5.22;;;;;;;;;;10285412;28;20082;-59
2024/03/24 10:39:21;;;;;;;9.88;5.90;;;;;;;;;;10293661;28;20072;-59
2024/03/24 10:44:21;;;;;;;11.18;7.63;;;;;;;;;;10272086;28;20080;-59
2024/03/24 10:49:21;;;;;;;12.07;6.65;;;;;;;;;;10260943;28;20064;-58
2024/03/24 10:54:19;;;;;;;6.53;5.68;;;;;;;;;;10290867;28;20513;-59
2024/03/24 10:59:20;;;;;;;6.70;5.75;;;;;;;;;;10283160;28;20076;-59
2024/03/24 11:04:19;;;;;;;10.70;6.57;;;;;;;;;;10291225;28;20072;-59
2024/03/24 11:09:16;;;;;;;9.65;5.75;;;;;;;;;;10272357;28;20084;-60
2024/03/24 11:14:14;;;;;;;6.30;5.40;;;;;;;;;;10292585;28;20083;-58
2024/03/24 11:19:12;;;;;;;10.32;5.80;;;;;;;;;;10292443;28;20064;-58
2024/03/24 11:24:24;;;;;;;7.60;5.80;;;;;;;;;;10292795;28;20071;-58
2024/03/24 11:29:40;;;;;;;12.30;6.25;;;;;;;;;;10282810;28;20072;-57
2024/03/24 11:34:43;;;;;;;8.80;5.30;;;;;;;;;;10296221;28;20468;-59
2024/03/24 11:39:43;;;;;;;9.52;6.30;;;;;;;;;;10285888;28;20072;-57
2024/03/24 11:44:41;;;;;;;5.78;5.00;;;;;;;;;;10289954;28;20076;-57
2024/03/24 11:49:50;;;;;;;6.68;5.72;;;;;;;;;;10281202;28;20510;-58
2024/03/24 11:54:49;;;;;;;7.63;5.90;;;;;;;;;;10278505;28;20069;-58
2024/03/24 11:59:47;;;;;;;5.78;5.15;;;;;;;;;;10307097;28;20068;-58
2024/03/24 12:04:44;;;;;;;9.00;6.05;;;;;;;;;;10280092;28;20064;-58
2024/03/24 12:09:44;;;;;;;9.02;7.03;;;;;;;;;;10294196;28;20075;-58
2024/03/24 12:14:43;;;;;;;8.02;6.15;;;;;;;;;;10279790;28;20089;-58
2024/03/24 12:19:41;;;;;;;10.55;6.38;;;;;;;;;;10243609;28;20071;-58
2024/03/24 12:24:39;;;;;;;8.40;7.60;;;;;;;;;;10245449;28;20087;-57
2024/03/24 12:29:37;;;;;;;10.35;5.85;;;;;;;;;;10274337;28;20068;-56
2024/03/24 12:34:35;;;;;;;9.57;5.97;;;;;;;;;;10271260;28;20068;-59
2024/03/24 12:39:33;;;;;;;6.95;4.82;;;;;;;;;;10221736;28;20068;-58
2024/03/24 12:44:30;;;;;;;5.95;4.93;;;;;;;;;;10239488;28;20090;-58
2024/03/24 12:49:31;;;;;;;5.50;4.80;;;;;;;;;;10268200;28;20080;-58
2024/03/24 12:54:31;;;;;;;6.60;4.20;;;;;;;;;;10258871;28;20080;-58
2024/03/24 12:59:28;;;;;;;4.82;4.22;;;;;;;;;;10291766;28;20048;-58
2024/03/24 13:04:26;;;;;;;6.68;5.22;;;;;;;;;;10271606;28;20056;-58
2024/03/24 13:09:24;;;;;;;7.22;4.82;;;;;;;;;;10243246;28;20068;-58
2024/03/24 13:14:23;;;;;;;6.78;4.40;;;;;;;;;;10279118;28;20094;-58
2024/03/24 13:19:25;;;;;;;7.15;4.85;;;;;;;;;;10284291;28;20462;-58
2024/03/24 13:24:24;;;;;;;5.18;4.13;;;;;;;;;;10301505;28;20501;-58
2024/03/24 13:29:23;;;;;;;6.70;4.07;;;;;;;;;;10270277;28;20068;-58
2024/03/24 13:34:21;;;;;;;10.55;4.88;;;;;;;;;;10275783;28;20072;-59
2024/03/24 13:39:22;;;;;;;4.63;4.10;;;;;;;;;;10275844;28;20430;-60
2024/03/24 13:44:24;;;;;;;5.03;3.60;;;;;;;;;;10281298;28;20071;-58
2024/03/24 13:49:23;;;;;;;6.18;4.18;;;;;;;;;;10285029;28;20079;-59
2024/03/24 13:54:22;;;;;;;4.68;3.78;;;;;;;;;;10305925;28;20063;-61
2024/03/24 13:59:20;;;;;;;4.80;3.83;;;;;;;;;;10268834;28;20072;-59
2024/03/24 14:04:17;;;;;;;7.90;6.13;;;;;;;;;;10281942;28;20707;-60
2024/03/24 14:09:16;;;;;;;4.93;4.38;;;;;;;;;;10282203;28;20073;-59
2024/03/24 14:14:24;;;;;;;5.82;4.32;;;;;;;;;;10278840;28;20119;-59
2024/03/24 14:19:28;;;;;;;8.75;7.78;;;;;;;;;;10263174;28;20481;-60
2024/03/24 14:24:28;;;;;;;6.95;4.32;;;;;;;;;;10286287;28;20485;-58
2024/03/24 14:29:26;;;;;;;6.95;4.72;;;;;;;;;;10278407;28;20489;-59
2024/03/24 14:34:23;;;;;;;7.25;5.97;;;;;;;;;;10290462;28;20067;-59
2024/03/24 14:39:29;;;;;;;15.52;9.23;;;;;;;;;;10291621;28;20064;-61
2024/03/24 14:44:42;;;;;;;9.45;6.13;;;;;;;;;;10289788;28;20068;-60
2024/03/24 14:49:40;;;;;;;7.40;4.35;;;;;;;;;;10294302;28;20067;-59
2024/03/24 14:54:37;;;;;;;5.07;4.35;;;;;;;;;;10284593;28;20072;-60
2024/03/24 14:59:36;;;;;;;10.15;4.93;;;;;;;;;;10281391;28;20068;-59
2024/03/24 15:04:33;;;;;;;6.22;4.15;;;;;;;;;;10290393;28;20053;-59
2024/03/24 15:09:31;;;;;;;6.18;4.35;;;;;;;;;;10284092;28;20076;-60
2024/03/24 15:14:28;;;;;;;5.32;4.40;;;;;;;;;;10282801;28;20064;-61
2024/03/24 15:19:27;;;;;;;5.63;4.78;;;;;;;;;;10278371;28;20102;-59
2024/03/24 15:24:25;;;;;;;9.30;4.78;;;;;;;;;;10283603;28;20584;-59
2024/03/24 15:29:23;;;;;;;11.18;7.10;;;;;;;;;;10282915;28;20621;-61
2024/03/24 15:34:20;;;;;;;9.63;8.23;;;;;;;;;;10276386;28;20068;-60
2024/03/24 15:39:19;;;;;;;8.93;8.10;;;;;;;;;;10280555;28;20056;-58
2024/03/24 15:44:17;;;;;;;13.80;10.73;;;;;;;;;;10282283;28;20498;-59
2024/03/24 15:49:14;;;;;;;18.45;11.90;;;;;;;;;;10281829;28;20064;-58
2024/03/24 15:54:12;;;;;;;12.35;10.80;;;;;;;;;;10278779;28;20068;-59
2024/03/24 15:59:21;;;;;;;10.00;6.85;;;;;;;;;;10298064;28;20076;-60
2024/03/24 16:04:19;;;;;;;15.40;13.90;;;;;;;;;;10284868;28;20083;-60
2024/03/24 16:09:17;;;;;;;7.47;5.40;;;;;;;;;;10277839;28;20069;-60
2024/03/24 16:14:21;;;;;;;6.70;4.25;;;;;;;;;;10280281;28;20087;-60
2024/03/24 16:19:21;;;;;;;;;;;;;;;;;;10279832;28;20079;-59
2024/03/24 16:24:19;;;;;;;6.25;3.83;;;;;;;;;;10278622;28;19970;-60
2024/03/24 16:29:17;;;;;;;5.95;3.63;;;;;;;;;;10278277;28;20071;-59
2024/03/24 16:34:15;;;;;;;8.20;4.25;;;;;;;;;;10263620;28;20077;-59
2024/03/24 16:39:13;;;;;;;6.30;5.50;;;;;;;;;;10292355;28;20068;-59
2024/03/24 16:44:10;;;;;;;12.73;10.98;;;;;;;;;;10293182;28;20071;-59
2024/03/24 16:49:10;;;;;;;13.45;8.82;;;;;;;;;;10276548;28;20063;-60
2024/03/24 16:54:08;;;;;;;9.70;6.22;;;;;;;;;;10279452;28;20072;-60
2024/03/24 16:59:05;;;;;;;8.90;5.70;;;;;;;;;;10282302;28;20071;-60
2024/03/24 17:04:03;;;;;;;11.57;5.53;;;;;;;;;;10283352;28;20261;-59
2024/03/24 17:09:02;;;;;;;9.95;6.03;;;;;;;;;;10275316;28;20063;-60
2024/03/24 17:13:59;;;;;;;8.27;5.40;;;;;;;;;;10285691;28;20094;-59
2024/03/24 17:18:56;;;;;;;16.10;5.32;;;;;;;;;;10275509;28;20072;-59
2024/03/24 17:23:54;;;;;;;6.68;4.90;;;;;;;;;;10275691;28;20501;-59
2024/03/24 17:28:53;;;;;;;10.60;4.90;;;;;;;;;;10275547;28;20064;-59
2024/03/24 17:33:50;;;;;;;5.10;4.10;;;;;;;;;;10275143;28;20069;-59
2024/03/24 17:38:48;;;;;;;5.18;4.03;;;;;;;;;;10278919;28;20071;-58
2024/03/24 17:43:45;;;;;;;6.38;5.40;;;;;;;;;;10282954;28;20083;-59
2024/03/24 17:48:44;;;;;;;16.83;14.73;;;;;;;;;;10258981;28;20085;-59
2024/03/24 17:53:42;;;;;;;13.15;11.77;;;;;;;;;;10289970;28;20064;-58
2024/03/24 17:58:39;;;;;;;22.90;17.67;;;;;;;;;;10274073;28;20095;-60
2024/03/24 18:03:37;;;;;;;43.75;31.27;;;;;;;;;;10274185;28;20065;-60
2024/03/24 18:13:51;;;;;;;13.40;9.80;;;;;;;;;;10238330;28;1197194;-59
2024/03/24 18:18:48;;;;;;;11.27;9.30;;;;;;;;;;10276788;28;20073;-60
2024/03/24 18:23:48;;;;;;;12.18;9.55;;;;;;;;;;10274904;28;20079;-58
2024/03/24 18:28:46;;;;;;;11.15;9.18;;;;;;;;;;10283087;28;20470;-60
2024/03/24 18:33:43;;;;;;;20.77;16.45;;;;;;;;;;10277534;28;20122;-59
2024/03/24 18:38:41;;;;;;;15.00;13.27;;;;;;;;;;10273721;28;20548;-61
2024/03/24 18:43:40;;;;;;;15.35;13.73;;;;;;;;;;10277036;28;20064;-57
2024/03/24 18:48:37;;;;;;;10.70;6.97;;;;;;;;;;10275253;28;20052;-59
2024/03/24 18:53:35;;;;;;;11.85;8.32;;;;;;;;;;10274389;28;20565;-59
2024/03/24 18:58:32;;;;;;;13.02;8.90;;;;;;;;;;10283799;28;20076;-59
2024/03/24 19:03:33;;;;;;;12.50;10.68;;;;;;;;;;10278191;28;20128;-59
2024/03/24 19:08:31;;;;;;;16.63;11.57;;;;;;;;;;10276591;28;20061;-59
2024/03/24 19:13:29;;;;;;;10.00;6.82;;;;;;;;;;10281523;28;20079;-58
2024/03/24 19:18:26;;;;;;;14.90;10.30;;;;;;;;;;10289230;28;20470;-59
2024/03/24 19:23:25;;;;;;;13.30;8.93;;;;;;;;;;10292110;28;20500;-59
2024/03/24 19:28:22;;;;;;;9.85;8.63;;;;;;;;;;10282999;28;20080;-58
2024/03/24 19:33:20;;;;;;;11.52;10.35;;;;;;;;;;10277608;28;20959;-59
2024/03/24 19:38:18;;;;;;;10.90;7.60;;;;;;;;;;10280347;28;20075;-59
2024/03/24 19:43:16;;;;;;;9.30;8.30;;;;;;;;;;10274738;28;20088;-57
2024/03/24 19:48:14;;;;;;;9.65;7.78;;;;;;;;;;10278255;28;20084;-58
2024/03/24 19:53:11;;;;;;;9.27;6.82;;;;;;;;;;10277010;28;20065;-59
2024/03/24 19:58:09;;;;;;;8.40;6.45;;;;;;;;;;10288379;28;20075;-58
2024/03/24 20:03:09;;;;;;;7.20;6.32;;;;;;;;;;10279070;28;20486;-60
2024/03/24 20:08:06;;;;;;;10.40;7.53;;;;;;;;;;10268466;28;20072;-58
2024/03/24 20:13:05;;;;;;;15.82;11.70;;;;;;;;;;10274969;28;20073;-60
2024/03/24 20:18:05;;;;;;;8.15;7.35;;;;;;;;;;10277934;28;20072;-59
2024/03/24 20:23:04;;;;;;;8.75;6.05;;;;;;;;;;10273958;28;20079;-59
2024/03/24 20:28:01;;;;;;;7.55;6.18;;;;;;;;;;10262329;28;20509;-60
2024/03/24 20:33:00;;;;;;;6.95;5.20;;;;;;;;;;10281874;28;20182;-59
2024/03/24 20:38:03;;;;;;;4.30;3.90;;;;;;;;;;10284906;28;20065;-59
2024/03/24 20:43:02;;;;;;;8.55;6.00;;;;;;;;;;10275448;28;20083;-58
2024/03/24 20:47:59;;;;;;;6.88;4.80;;;;;;;;;;10276371;28;20084;-59
2024/03/24 20:52:57;;;;;;;4.50;4.10;;;;;;;;;;10283322;28;20060;-59
2024/03/24 20:57:55;;;;;;;6.55;5.70;;;;;;;;;;10277958;28;20064;-59
2024/03/24 21:02:54;;;;;;;5.70;5.07;;;;;;;;;;10274334;28;20550;-60
2024/03/24 21:07:52;;;;;;;6.65;5.03;;;;;;;;;;10286990;28;20068;-59
2024/03/24 21:12:49;;;;;;;4.60;4.07;;;;;;;;;;10280486;28;20076;-61
2024/03/24 21:17:47;;;;;;;5.97;4.93;;;;;;;;;;10272578;28;20521;-59
2024/03/24 21:22:46;;;;;;;7.05;4.43;;;;;;;;;;10276098;28;20544;-59
2024/03/24 21:27:45;;;;;;;5.13;4.47;;;;;;;;;;10276869;28;20482;-59
2024/03/24 21:32:42;;;;;;;6.35;4.45;;;;;;;;;;10277763;28;20072;-57
2024/03/24 21:42:56;;;;;;;5.38;4.35;;;;;;;;;;10284204;28;20072;-58
2024/03/24 21:47:54;;;;;;;5.10;4.53;;;;;;;;;;10277897;28;20079;-59
2024/03/24 21:52:51;;;;;;;7.90;6.20;;;;;;;;;;10269854;28;20533;-59
2024/03/24 21:57:49;;;;;;;5.90;4.53;;;;;;;;;;10274364;28;20144;-58
2024/03/24 22:02:48;;;;;;;5.38;3.65;;;;;;;;;;10286166;28;20064;-60
2024/03/24 22:07:46;;;;;;;4.82;3.90;;;;;;;;;;10285877;28;20079;-59
2024/03/24 22:12:44;;;;;;;7.30;4.85;;;;;;;;;;10282631;28;20080;-59
2024/03/24 22:17:41;;;;;;;4.03;3.63;;;;;;;;;;10275191;28;20083;-60
2024/03/24 22:22:40;;;;;;;10.32;3.75;;;;;;;;;;10273987;28;20068;-58
2024/03/24 22:27:38;;;;;;;5.00;3.80;;;;;;;;;;10280136;28;20083;-57
2024/03/24 22:32:35;;;;;;;5.35;4.18;;;;;;;;;;10283216;28;20105;-57
2024/03/24 22:37:33;;;;;;;4.38;3.97;;;;;;;;;;10273565;28;20540;-58
2024/03/24 22:42:32;;;;;;;3.95;3.30;;;;;;;;;;10285607;28;20537;-60
2024/03/24 22:47:29;;;;;;;4.45;3.33;;;;;;;;;;10304680;28;20068;-60
2024/03/24 22:52:27;;;;;;;8.68;3.55;;;;;;;;;;10296658;28;20071;-59
2024/03/24 22:57:24;;;;;;;5.80;4.55;;;;;;;;;;10289463;28;20082;-58
2024/03/24 23:02:23;;;;;;;5.80;3.60;;;;;;;;;;10287145;28;20525;-59
2024/03/24 23:07:20;;;;;;;4.70;3.55;;;;;;;;;;10283202;28;20095;-61
2024/03/24 23:12:18;;;;;;;6.00;5.07;;;;;;;;;;10278671;28;20077;-60
2024/03/24 23:17:15;;;;;;;3.90;3.60;;;;;;;;;;10287478;28;20064;-58
2024/03/24 23:22:14;;;;;;;5.03;3.35;;;;;;;;;;10279957;28;20075;-58
2024/03/24 23:27:11;;;;;;;3.17;2.85;;;;;;;;;;10296653;28;20071;-58
2024/03/24 23:32:09;;;;;;;3.80;3.17;;;;;;;;;;10279837;28;20096;-58
2024/03/24 23:37:06;;;;;;;5.55;3.63;;;;;;;;;;10280067;28;20118;-59
2024/03/24 23:42:05;;;;;;;4.22;3.13;;;;;;;;;;10279071;28;20715;-58
2024/03/24 23:47:03;;;;;;;8.43;2.67;;;;;;;;;;10287077;28;20075;-59
2024/03/24 23:52:00;;;;;;;2.92;2.72;;;;;;;;;;10286380;28;20091;-59
2024/03/24 23:56:58;;;;;;;5.72;2.97;;;;;;;;;;10281134;28;20462;-58
